Time;durP1;ratioP1;P1;durP2;ratioP2;P2;SDS_P1;SDS_P2;PMS_P1;PMS_P2;Temp;Humidity;BMP_temperature;BMP_pressure;BME280_temperature;BME280_humidity;BME280_pressure;Samples;Min_cycle;Max_cycle;Signal;HPM_P1;HPM_P2
2023/12/16 00:01:15;;;;;;;1.73;0.60;;;33.10;66.00;;;;;;5025610;28;20962;-69
2023/12/16 00:03:42;;;;;;;1.20;0.60;;;33.10;66.70;;;;;;5024551;28;20022;-72
2023/12/16 00:06:10;;;;;;;1.70;0.43;;;32.80;64.90;;;;;;5025840;28;20063;-69
2023/12/16 00:08:37;;;;;;;2.35;0.65;;;32.80;63.40;;;;;;5021722;28;20087;-69
2023/12/16 00:11:04;;;;;;;3.13;0.85;;;32.80;60.40;;;;;;5023615;28;20478;-69
2023/12/16 00:13:31;;;;;;;2.47;1.23;;;32.80;60.20;;;;;;5029305;28;20646;-69
2023/12/16 00:15:58;;;;;;;2.17;0.60;;;32.70;58.70;;;;;;5029184;28;20060;-68
2023/12/16 00:18:26;;;;;;;1.08;0.63;;;32.60;59.40;;;;;;5026315;28;20029;-68
2023/12/16 00:20:53;;;;;;;0.63;0.50;;;32.40;58.10;;;;;;5025350;28;20025;-69
2023/12/16 00:23:20;;;;;;;0.95;0.40;;;32.50;59.40;;;;;;5026509;28;20031;-72
2023/12/16 00:25:47;;;;;;;1.63;0.52;;;32.40;59.00;;;;;;5027245;28;20044;-67
2023/12/16 00:28:15;;;;;;;3.65;0.70;;;32.20;58.70;;;;;;5026185;28;20148;-71
2023/12/16 00:30:42;;;;;;;1.15;0.50;;;32.50;58.80;;;;;;5028596;28;20044;-69
2023/12/16 00:33:09;;;;;;;1.10;0.60;;;32.90;58.40;;;;;;5025637;28;20049;-71
2023/12/16 00:35:36;;;;;;;1.20;0.50;;;33.00;57.20;;;;;;5027943;28;20036;-67
2023/12/16 00:38:03;;;;;;;1.00;0.47;;;33.00;56.90;;;;;;5028071;28;20108;-70
2023/12/16 00:40:30;;;;;;;1.85;0.40;;;33.20;57.50;;;;;;5028188;28;20484;-69
2023/12/16 00:42:57;;;;;;;2.00;0.40;;;33.50;57.40;;;;;;5028928;28;20033;-69
2023/12/16 00:45:24;;;;;;;0.73;0.40;;;33.60;56.70;;;;;;5028128;28;20108;-70
2023/12/16 00:47:51;;;;;;;0.98;0.32;;;33.80;57.10;;;;;;5027585;28;20033;-69
2023/12/16 00:50:19;;;;;;;1.52;0.40;;;33.90;56.80;;;;;;5027184;28;20025;-67
2023/12/16 00:52:46;;;;;;;1.17;0.50;;;34.00;56.50;;;;;;5026943;28;20014;-71
2023/12/16 00:55:13;;;;;;;0.73;0.50;;;33.90;56.40;;;;;;5026716;28;20017;-69
2023/12/16 00:57:40;;;;;;;2.63;0.50;;;34.10;57.90;;;;;;5021633;28;20025;-68
2023/12/16 01:00:08;;;;;;;2.50;0.80;;;34.50;55.70;;;;;;5026488;28;20024;-72
2023/12/16 01:02:35;;;;;;;0.38;0.38;;;34.50;55.70;;;;;;5028204;28;20033;-70
2023/12/16 01:05:03;;;;;;;6.07;0.77;;;34.40;56.90;;;;;;5027351;28;20040;-68
2023/12/16 01:07:30;;;;;;;0.60;0.50;;;34.40;56.10;;;;;;5027794;28;20025;-68
2023/12/16 01:09:57;;;;;;;15.80;1.73;;;34.20;55.70;;;;;;5027605;28;20771;-68
2023/12/16 01:12:25;;;;;;;8.40;1.15;;;34.30;56.40;;;;;;5028168;28;20399;-70
2023/12/16 01:14:52;;;;;;;2.55;0.77;;;34.40;57.70;;;;;;5022551;28;20064;-70
2023/12/16 01:17:19;;;;;;;4.57;0.95;;;34.60;56.20;;;;;;5027173;28;20421;-72
2023/12/16 01:19:46;;;;;;;5.18;0.60;;;34.40;55.80;;;;;;5024948;28;20030;-67
2023/12/16 01:22:13;;;;;;;3.00;1.00;;;34.50;57.20;;;;;;5025841;28;20025;-70
2023/12/16 01:24:40;;;;;;;3.70;0.77;;;34.80;55.40;;;;;;5027547;28;20017;-69
2023/12/16 01:27:07;;;;;;;4.30;0.80;;;34.80;55.90;;;;;;5027148;28;20088;-67
2023/12/16 01:29:34;;;;;;;5.47;1.00;;;34.80;55.50;;;;;;5027098;28;20029;-68
2023/12/16 01:32:01;;;;;;;3.67;0.60;;;34.80;55.50;;;;;;5027042;28;20025;-67
2023/12/16 01:34:28;;;;;;;3.40;0.65;;;34.90;55.60;;;;;;5026015;28;20041;-68
2023/12/16 01:36:56;;;;;;;1.95;0.60;;;35.20;54.90;;;;;;5026862;28;20060;-68
2023/12/16 01:39:23;;;;;;;3.25;0.88;;;35.20;52.60;;;;;;5026000;28;20025;-68
2023/12/16 01:41:50;;;;;;;1.85;0.70;;;35.30;53.50;;;;;;5025827;28;20037;-68
2023/12/16 01:44:17;;;;;;;11.20;1.70;;;35.40;55.00;;;;;;5027078;28;20021;-67
2023/12/16 01:46:45;;;;;;;2.25;0.88;;;35.50;53.90;;;;;;5021114;28;20147;-70
2023/12/16 01:49:13;;;;;;;0.68;0.30;;;35.30;53.30;;;;;;5026401;28;20025;-70
2023/12/16 01:51:40;;;;;;;1.38;0.63;;;34.90;53.30;;;;;;5026555;28;20017;-72
2023/12/16 01:54:08;;;;;;;1.40;0.80;;;35.10;54.20;;;;;;5026350;28;20049;-68
2023/12/16 01:56:37;;;;;;;1.95;0.80;;;35.50;52.60;;;;;;5026577;28;20029;-68
2023/12/16 01:59:06;;;;;;;1.85;0.52;;;35.70;53.30;;;;;;5026877;28;20052;-69
2023/12/16 02:01:33;;;;;;;0.73;0.60;;;35.70;52.00;;;;;;5028127;28;20556;-67
2023/12/16 02:04:00;;;;;;;1.67;0.73;;;35.90;52.20;;;;;;5032306;28;20488;-69
2023/12/16 02:06:27;;;;;;;1.35;0.52;;;36.20;52.40;;;;;;5028248;28;20022;-68
2023/12/16 02:08:54;;;;;;;1.63;0.50;;;36.30;51.60;;;;;;5026646;28;20026;-68
2023/12/16 02:11:22;;;;;;;2.20;0.43;;;36.30;53.10;;;;;;5026434;28;20131;-69
2023/12/16 02:13:51;;;;;;;2.20;0.60;;;36.50;51.60;;;;;;5026473;28;20014;-70
2023/12/16 02:16:18;;;;;;;2.75;0.57;;;36.60;51.80;;;;;;5025261;28;20030;-69
2023/12/16 02:18:45;;;;;;;1.23;0.52;;;36.50;50.10;;;;;;5020008;28;20083;-68
2023/12/16 02:21:12;;;;;;;3.83;0.98;;;36.00;50.80;;;;;;5025627;28;20029;-69
2023/12/16 02:23:41;;;;;;;1.48;0.60;;;36.00;49.40;;;;;;5028202;28;20052;-69
2023/12/16 02:26:08;;;;;;;1.23;0.50;;;36.10;51.00;;;;;;5026656;28;20040;-70
2023/12/16 02:28:35;;;;;;;2.67;0.70;;;36.00;50.80;;;;;;5033667;28;20026;-69
2023/12/16 02:31:03;;;;;;;1.50;0.50;;;36.10;50.60;;;;;;5024631;28;20029;-70
2023/12/16 02:33:30;;;;;;;1.92;0.63;;;36.10;49.00;;;;;;5026044;28;20036;-70
2023/12/16 02:35:57;;;;;;;1.02;0.70;;;36.00;48.80;;;;;;5029400;28;20029;-71
2023/12/16 02:38:24;;;;;;;1.17;0.60;;;36.30;50.40;;;;;;5029174;28;20032;-70
2023/12/16 02:40:51;;;;;;;1.80;0.52;;;36.70;49.60;;;;;;5025251;28;20107;-67
2023/12/16 02:43:18;;;;;;;1.83;0.63;;;36.60;49.40;;;;;;5024350;28;20032;-70
2023/12/16 02:45:45;;;;;;;3.03;0.60;;;36.80;49.70;;;;;;5023043;28;20038;-69
2023/12/16 02:48:12;;;;;;;1.83;0.73;;;37.00;51.20;;;;;;5024465;28;20029;-68
2023/12/16 02:50:39;;;;;;;1.27;0.65;;;37.10;49.40;;;;;;5025886;28;20480;-69
2023/12/16 02:53:07;;;;;;;1.50;0.60;;;37.20;49.80;;;;;;5024196;28;20033;-68
2023/12/16 02:55:34;;;;;;;0.80;0.50;;;37.20;49.50;;;;;;5026092;28;20026;-69
2023/12/16 02:58:01;;;;;;;1.90;0.50;;;37.00;48.20;;;;;;5025381;28;20924;-68
2023/12/16 03:00:29;;;;;;;1.98;0.60;;;37.00;49.70;;;;;;5016296;28;20025;-67
2023/12/16 03:02:56;;;;;;;1.55;0.60;;;36.90;49.60;;;;;;5018767;28;20033;-69
2023/12/16 03:05:23;;;;;;;1.23;0.68;;;36.90;49.20;;;;;;5023880;28;20022;-70
2023/12/16 03:07:50;;;;;;;1.75;0.68;;;36.90;49.60;;;;;;5021694;28;20115;-69
2023/12/16 03:10:17;;;;;;;2.20;1.30;;;37.20;48.70;;;;;;5032596;28;20095;-73
2023/12/16 03:12:46;;;;;;;1.95;1.10;;;37.30;47.80;;;;;;5026065;28;20829;-71
2023/12/16 03:15:13;;;;;;;1.15;0.63;;;37.20;47.80;;;;;;5025375;28;20108;-72
2023/12/16 03:17:40;;;;;;;2.22;0.73;;;36.90;47.70;;;;;;5026461;28;20025;-69
2023/12/16 03:20:08;;;;;;;2.15;0.80;;;37.00;47.50;;;;;;5025960;28;20022;-67
2023/12/16 03:22:35;;;;;;;2.17;0.88;;;37.10;48.80;;;;;;5021612;28;20442;-70
2023/12/16 03:25:02;;;;;;;1.30;0.77;;;37.50;48.40;;;;;;5014191;28;20021;-72
2023/12/16 03:27:29;;;;;;;1.92;0.98;;;37.70;50.20;;;;;;5021454;28;20101;-69
2023/12/16 03:29:57;;;;;;;3.20;0.70;;;37.80;47.20;;;;;;5022551;28;20034;-68
2023/12/16 03:32:24;;;;;;;1.95;0.77;;;37.40;47.00;;;;;;5012444;28;20107;-68
2023/12/16 03:34:51;;;;;;;3.75;0.63;;;37.40;47.50;;;;;;5023207;28;20723;-69
2023/12/16 03:37:18;;;;;;;2.60;0.68;;;37.40;47.40;;;;;;5030056;28;20079;-70
2023/12/16 03:39:45;;;;;;;3.03;0.55;;;37.20;47.50;;;;;;5027662;28;20096;-71
2023/12/16 03:42:13;;;;;;;2.88;0.70;;;37.30;46.60;;;;;;5028162;28;20033;-68
2023/12/16 03:44:41;;;;;;;1.25;0.47;;;37.70;46.40;;;;;;5036739;28;20126;-73
2023/12/16 03:47:09;;;;;;;1.50;0.40;;;37.70;46.10;;;;;;5039037;28;20460;-73
2023/12/16 03:49:36;;;;;;;2.38;0.60;;;37.70;46.60;;;;;;5040423;28;20033;-75
2023/12/16 03:52:03;;;;;;;0.80;0.43;;;37.90;47.10;;;;;;5036442;28;20049;-72
2023/12/16 03:54:30;;;;;;;1.00;0.68;;;38.00;47.80;;;;;;5026726;28;20845;-72
2023/12/16 03:56:57;;;;;;;0.90;0.50;;;38.60;48.30;;;;;;5030936;28;20034;-72
2023/12/16 03:59:24;;;;;;;0.43;0.40;;;39.40;48.10;;;;;;5032007;28;20164;-72
2023/12/16 04:01:52;;;;;;;1.80;0.55;;;39.00;47.00;;;;;;5035396;28;20404;-74
2023/12/16 04:04:19;;;;;;;3.45;0.60;;;39.20;47.30;;;;;;5030035;28;20744;-70
2023/12/16 04:06:46;;;;;;;4.03;1.05;;;38.90;48.00;;;;;;5032441;28;20025;-73
2023/12/16 04:09:14;;;;;;;1.42;0.80;;;39.00;48.30;;;;;;5029182;28;20424;-75
2023/12/16 04:11:50;;;;;;;1.60;0.60;;;39.40;47.20;;;;;;5031100;28;20121;-69
2023/12/16 04:14:17;;;;;;;2.40;0.95;;;39.70;45.70;;;;;;5029108;28;20037;-70
2023/12/16 04:16:44;;;;;;;1.77;0.60;;;39.60;46.60;;;;;;5028901;28;20024;-71
2023/12/16 04:19:13;;;;;;;0.77;0.47;;;39.30;46.40;;;;;;5029985;28;20637;-71
2023/12/16 04:21:40;;;;;;;1.13;0.50;;;39.20;46.20;;;;;;5034448;28;20784;-68
2023/12/16 04:24:07;;;;;;;1.70;0.63;;;38.90;46.70;;;;;;5024715;28;20432;-75
2023/12/16 04:26:37;;;;;;;2.08;0.40;;;38.90;45.70;;;;;;5024975;28;20029;-73
2023/12/16 04:29:05;;;;;;;1.25;0.57;;;38.70;45.70;;;;;;5024112;28;20030;-70
2023/12/16 04:31:32;;;;;;;1.60;0.73;;;39.40;46.90;;;;;;5023184;28;20026;-72
2023/12/16 04:33:59;;;;;;;2.58;0.57;;;39.20;46.20;;;;;;5027939;28;20036;-70
2023/12/16 04:36:26;;;;;;;3.83;0.75;;;38.50;45.40;;;;;;5034406;28;20108;-75
2023/12/16 04:38:53;;;;;;;1.30;0.70;;;38.70;45.70;;;;;;5030957;28;20088;-72
2023/12/16 04:41:20;;;;;;;1.60;0.60;;;38.70;46.20;;;;;;5031511;28;20747;-71
2023/12/16 04:43:47;;;;;;;1.88;0.45;;;39.20;46.20;;;;;;5028566;28;20531;-73
2023/12/16 04:46:22;;;;;;;1.63;0.50;;;39.10;46.40;;;;;;5027797;28;20025;-70
2023/12/16 04:48:49;;;;;;;2.03;0.65;;;38.90;46.20;;;;;;5026686;28;20040;-72
2023/12/16 04:51:16;;;;;;;2.85;0.82;;;38.50;47.00;;;;;;5028685;28;20025;-73
2023/12/16 04:53:43;;;;;;;1.70;0.65;;;37.90;45.90;;;;;;5030262;28;20542;-73
2023/12/16 04:56:11;;;;;;;1.65;0.60;;;38.40;47.20;;;;;;5019721;28;20053;-70
2023/12/16 04:58:38;;;;;;;2.63;0.80;;;38.80;47.40;;;;;;5024516;28;20558;-76
2023/12/16 05:01:07;;;;;;;3.92;0.73;;;39.50;47.30;;;;;;5024374;28;20040;-76
2023/12/16 05:03:35;;;;;;;2.10;0.60;;;39.30;47.20;;;;;;5022665;28;20034;-72
2023/12/16 05:06:02;;;;;;;1.30;0.50;;;38.60;47.70;;;;;;5032453;28;20068;-75
2023/12/16 05:08:29;;;;;;;2.95;0.57;;;38.90;47.00;;;;;;5038348;28;20550;-71
2023/12/16 05:10:56;;;;;;;0.90;0.43;;;39.00;47.40;;;;;;5036922;28;20122;-69
2023/12/16 05:13:23;;;;;;;1.52;0.60;;;38.60;46.50;;;;;;5033465;28;20041;-70
2023/12/16 05:15:51;;;;;;;4.20;0.50;;;38.70;47.30;;;;;;5035509;28;20029;-70
2023/12/16 05:18:19;;;;;;;4.38;0.73;;;37.90;46.40;;;;;;5037391;28;20057;-74
2023/12/16 05:20:46;;;;;;;0.65;0.43;;;38.10;46.80;;;;;;5033493;28;20060;-72
2023/12/16 05:23:14;;;;;;;1.23;0.50;;;38.50;47.00;;;;;;5034063;28;20033;-72
2023/12/16 05:25:41;;;;;;;2.17;0.60;;;38.90;47.00;;;;;;5036936;28;20033;-70
2023/12/16 05:28:09;;;;;;;1.83;0.70;;;39.40;47.10;;;;;;5033426;28;20779;-73
2023/12/16 05:30:36;;;;;;;2.63;0.57;;;39.20;46.60;;;;;;5031262;28;20029;-66
2023/12/16 05:33:03;;;;;;;1.52;0.68;;;39.00;47.30;;;;;;5024580;28;20049;-73
2023/12/16 05:35:30;;;;;;;1.40;0.50;;;38.20;47.20;;;;;;5029057;28;20028;-73
2023/12/16 05:38:00;;;;;;;2.22;0.50;;;38.00;47.50;;;;;;5025767;28;20742;-72
2023/12/16 05:40:27;;;;;;;2.00;0.88;;;37.70;46.70;;;;;;5027695;28;20578;-71
2023/12/16 05:42:54;;;;;;;2.03;1.58;;;38.40;46.30;;;;;;5027601;28;20373;-77
2023/12/16 05:45:21;;;;;;;4.65;1.40;;;39.00;46.60;;;;;;5026040;28;20029;-70
2023/12/16 05:47:49;;;;;;;1.58;1.02;;;39.50;46.40;;;;;;5024378;28;20056;-70
2023/12/16 05:50:16;;;;;;;2.05;0.63;;;39.60;47.20;;;;;;5024717;28;20422;-74
2023/12/16 05:52:43;;;;;;;0.75;0.47;;;39.40;45.80;;;;;;5022630;28;20478;-71
2023/12/16 05:55:10;;;;;;;4.43;0.98;;;39.50;46.40;;;;;;5023615;28;20028;-73
2023/12/16 05:57:37;;;;;;;2.08;0.65;;;39.40;46.20;;;;;;5026325;28;20506;-67
2023/12/16 06:00:08;;;;;;;0.70;0.35;;;39.00;45.70;;;;;;5021873;28;20022;-68
2023/12/16 06:02:36;;;;;;;1.67;0.60;;;38.50;46.80;;;;;;5020238;28;20025;-73
2023/12/16 06:05:03;;;;;;;1.55;0.55;;;38.40;46.10;;;;;;5027392;28;20022;-73
2023/12/16 06:07:31;;;;;;;2.92;0.82;;;38.50;46.20;;;;;;5029167;28;20029;-69
2023/12/16 06:09:58;;;;;;;1.98;0.63;;;38.60;46.20;;;;;;5029512;28;20147;-70
2023/12/16 06:12:28;;;;;;;2.15;1.02;;;38.50;46.10;;;;;;5027814;28;20031;-69
2023/12/16 06:14:55;;;;;;;2.15;0.98;;;38.10;46.70;;;;;;5030902;28;20028;-75
2023/12/16 06:17:22;;;;;;;1.85;0.80;;;38.60;46.10;;;;;;5028974;28;20740;-73
2023/12/16 06:19:49;;;;;;;0.90;0.50;;;38.80;46.80;;;;;;5028442;28;20036;-73
2023/12/16 06:22:16;;;;;;;1.42;0.38;;;39.00;46.40;;;;;;5028582;28;20018;-73
2023/12/16 06:24:43;;;;;;;2.20;0.68;;;38.50;45.90;;;;;;5031543;28;20144;-75
2023/12/16 06:27:10;;;;;;;1.88;0.90;;;38.10;46.70;;;;;;5028160;28;20150;-75
2023/12/16 06:29:40;;;;;;;2.90;0.60;;;38.00;46.00;;;;;;5027064;28;20033;-73
2023/12/16 06:32:07;;;;;;;1.52;0.70;;;38.00;46.20;;;;;;5029967;28;20771;-74
2023/12/16 06:34:34;;;;;;;2.22;0.63;;;37.80;46.60;;;;;;5029526;28;20050;-74
2023/12/16 06:37:01;;;;;;;1.17;0.50;;;37.60;46.10;;;;;;5030166;28;20091;-74
2023/12/16 06:39:28;;;;;;;3.42;1.75;;;37.20;46.60;;;;;;5029327;28;20022;-74
2023/12/16 06:41:56;;;;;;;2.30;1.70;;;37.00;46.10;;;;;;5033249;28;20029;-67
2023/12/16 06:44:23;;;;;;;1.98;1.00;;;36.80;45.90;;;;;;5028327;28;20893;-67
2023/12/16 06:46:50;;;;;;;1.33;0.68;;;36.80;46.80;;;;;;5027529;28;20053;-69
2023/12/16 06:49:17;;;;;;;3.15;0.98;;;36.60;46.90;;;;;;5026799;28;20506;-73
2023/12/16 06:51:44;;;;;;;1.73;0.70;;;36.60;47.10;;;;;;5023498;28;20090;-69
2023/12/16 06:54:14;;;;;;;2.25;0.70;;;36.40;45.90;;;;;;5028996;28;20052;-66
2023/12/16 06:56:41;;;;;;;2.15;0.80;;;36.00;46.60;;;;;;5029184;28;20040;-68
2023/12/16 06:59:08;;;;;;;0.52;0.38;;;36.00;45.80;;;;;;5025951;28;20471;-67
2023/12/16 07:01:36;;;;;;;0.98;0.40;;;36.20;46.20;;;;;;5028037;28;20147;-68
2023/12/16 07:04:03;;;;;;;0.98;0.70;;;36.30;46.40;;;;;;5027173;28;20047;-74
2023/12/16 07:06:30;;;;;;;3.10;1.00;;;36.20;46.40;;;;;;5033076;28;20120;-67
2023/12/16 07:08:57;;;;;;;1.42;0.60;;;36.50;46.60;;;;;;5029325;28;20024;-69
2023/12/16 07:11:27;;;;;;;3.67;0.80;;;36.60;46.90;;;;;;5032311;28;20017;-69
2023/12/16 07:13:54;;;;;;;1.77;1.08;;;36.20;46.40;;;;;;5031248;28;20475;-78
2023/12/16 07:16:21;;;;;;;6.72;4.03;;;35.80;46.70;;;;;;5031768;28;20040;-67
2023/12/16 07:18:48;;;;;;;5.75;3.17;;;35.50;47.20;;;;;;5032289;28;20040;-74
2023/12/16 07:21:15;;;;;;;3.28;1.40;;;35.30;46.70;;;;;;5028351;28;20371;-72
2023/12/16 07:23:42;;;;;;;2.42;1.60;;;35.00;46.70;;;;;;5019637;28;20029;-77
2023/12/16 07:26:09;;;;;;;2.25;1.20;;;34.80;47.10;;;;;;5025474;28;20075;-68
2023/12/16 07:28:39;;;;;;;3.72;1.00;;;34.70;47.70;;;;;;5027553;28;20886;-68
2023/12/16 07:31:06;;;;;;;1.55;0.68;;;35.40;47.90;;;;;;5024525;28;20744;-69
2023/12/16 07:33:37;;;;;;;2.25;0.80;;;36.30;47.40;;;;;;5022534;28;20052;-71
2023/12/16 07:36:07;;;;;;;4.13;1.70;;;36.50;46.80;;;;;;5026106;28;20666;-68
2023/12/16 07:38:34;;;;;;;3.75;1.90;;;36.10;51.20;;;;;;5029739;28;20028;-69
2023/12/16 07:41:02;;;;;;;3.22;1.90;;;35.40;56.60;;;;;;5031649;28;21284;-67
2023/12/16 07:43:29;;;;;;;4.00;1.85;;;34.50;58.60;;;;;;5020938;28;20064;-68
2023/12/16 07:45:56;;;;;;;4.25;1.73;;;33.90;59.80;;;;;;5024148;28;20037;-76
2023/12/16 07:48:24;;;;;;;3.55;1.92;;;33.60;60.70;;;;;;5023671;28;20033;-75
2023/12/16 07:50:54;;;;;;;3.70;1.60;;;33.50;61.10;;;;;;5020804;28;20084;-68
2023/12/16 07:53:22;;;;;;;3.75;1.75;;;33.10;61.90;;;;;;5019294;28;20026;-75
2023/12/16 07:55:49;;;;;;;4.90;2.00;;;32.80;62.80;;;;;;5019906;28;20430;-69
2023/12/16 07:58:17;;;;;;;4.63;2.28;;;32.40;62.90;;;;;;5020212;28;20518;-71
2023/12/16 08:00:44;;;;;;;3.38;1.88;;;31.90;63.90;;;;;;5018899;28;20495;-67
2023/12/16 08:03:11;;;;;;;3.58;1.92;;;31.50;64.40;;;;;;5025420;28;20731;-72
2023/12/16 08:05:40;;;;;;;6.55;2.13;;;31.30;65.00;;;;;;5020096;28;20029;-68
2023/12/16 08:08:07;;;;;;;5.38;1.75;;;31.20;65.30;;;;;;5024388;28;20116;-74
2023/12/16 08:10:35;;;;;;;3.40;1.90;;;31.00;66.00;;;;;;5020260;28;20024;-72
2023/12/16 08:13:02;;;;;;;2.05;1.52;;;31.50;65.60;;;;;;5025301;28;20025;-67
2023/12/16 08:15:29;;;;;;;7.28;2.00;;;31.80;66.00;;;;;;5019848;28;20513;-70
2023/12/16 08:17:56;;;;;;;6.15;1.90;;;31.80;65.80;;;;;;5020280;28;20036;-71
2023/12/16 08:20:23;;;;;;;3.17;1.70;;;31.50;66.80;;;;;;5022895;28;20021;-70
2023/12/16 08:22:51;;;;;;;5.68;2.20;;;31.20;67.10;;;;;;5022855;28;20038;-77
2023/12/16 08:25:18;;;;;;;7.40;2.13;;;30.90;66.80;;;;;;5021894;28;20093;-68
2023/12/16 08:27:45;;;;;;;5.70;1.70;;;30.80;67.20;;;;;;5011680;28;20542;-74
2023/12/16 08:30:16;;;;;;;3.38;1.65;;;30.70;67.30;;;;;;5017756;28;20026;-71
2023/12/16 08:32:43;;;;;;;4.10;1.77;;;30.70;67.30;;;;;;5021433;28;20072;-71
2023/12/16 08:35:10;;;;;;;2.85;1.60;;;30.40;67.70;;;;;;5018628;28;20920;-69
2023/12/16 08:37:40;;;;;;;4.05;1.85;;;30.00;68.30;;;;;;5027036;28;20439;-70
2023/12/16 08:40:09;;;;;;;3.63;1.80;;;29.60;69.20;;;;;;5019195;28;20026;-71
2023/12/16 08:42:37;;;;;;;4.63;1.83;;;29.40;70.00;;;;;;5025580;28;20029;-69
2023/12/16 08:45:04;;;;;;;3.25;2.03;;;29.00;69.70;;;;;;5023552;28;20391;-72
2023/12/16 08:47:31;;;;;;;6.70;1.10;;;28.80;69.40;;;;;;5015616;28;20029;-69
2023/12/16 08:49:59;;;;;;;3.63;1.10;;;28.50;65.00;;;;;;5017711;28;20017;-70
2023/12/16 08:52:30;;;;;;;2.55;1.20;;;28.30;63.00;;;;;;5016878;28;20359;-67
2023/12/16 08:54:57;;;;;;;2.50;1.20;;;28.10;61.90;;;;;;5019187;28;20028;-68
2023/12/16 08:57:25;;;;;;;1.65;1.15;;;28.00;62.70;;;;;;5015409;28;20278;-67
2023/12/16 08:59:52;;;;;;;4.05;1.55;;;27.80;63.90;;;;;;5015384;28;20061;-67
2023/12/16 09:02:20;;;;;;;4.80;1.40;;;27.70;65.30;;;;;;5016829;28;20562;-72
2023/12/16 09:04:47;;;;;;;7.03;2.50;;;27.40;70.20;;;;;;5015152;28;20476;-69
2023/12/16 09:07:14;;;;;;;9.35;3.42;;;27.10;78.00;;;;;;5018642;28;20030;-69
2023/12/16 09:09:41;;;;;;;5.80;2.78;;;26.70;87.30;;;;;;5016648;28;20115;-71
2023/12/16 09:12:08;;;;;;;7.80;2.95;;;26.00;93.00;;;;;;5018738;28;20482;-68
2023/12/16 09:14:35;;;;;;;8.15;3.42;;;25.70;97.30;;;;;;5018589;28;20033;-72
2023/12/16 09:17:03;;;;;;;7.65;3.22;;;25.50;99.90;;;;;;5024828;28;20050;-76
2023/12/16 09:19:30;;;;;;;9.90;2.97;;;25.20;99.90;;;;;;5020126;28;20093;-75
2023/12/16 09:21:57;;;;;;;8.18;3.42;;;24.90;99.90;;;;;;5023304;28;20021;-68
2023/12/16 09:24:24;;;;;;;10.07;3.22;;;24.70;99.90;;;;;;5019733;28;20476;-70
2023/12/16 09:26:51;;;;;;;10.10;2.95;;;24.50;99.90;;;;;;5018789;28;20512;-68
2023/12/16 09:29:18;;;;;;;13.20;4.03;;;24.40;99.90;;;;;;5010047;28;20629;-69
2023/12/16 09:31:45;;;;;;;12.57;3.53;;;24.20;99.90;;;;;;5020698;28;20041;-68
2023/12/16 09:34:13;;;;;;;10.25;3.28;;;24.10;99.90;;;;;;5044007;23;20110;-72
2023/12/16 09:36:40;;;;;;;12.73;3.30;;;23.90;99.90;;;;;;5052455;28;20068;-72
2023/12/16 09:39:10;;;;;;;11.23;3.38;;;23.70;99.90;;;;;;5054775;28;20063;-72
2023/12/16 09:41:44;;;;;;;13.15;2.97;;;23.60;99.90;;;;;;5053855;28;20077;-70
2023/12/16 09:44:16;;;;;;;10.52;2.83;;;23.50;99.90;;;;;;5050930;28;20481;-69
2023/12/16 09:46:44;;;;;;;9.63;2.85;;;23.40;99.90;;;;;;5055089;28;20119;-73
2023/12/16 09:49:13;;;;;;;13.50;3.45;;;23.40;99.90;;;;;;5054934;28;20557;-69
2023/12/16 09:51:45;;;;;;;10.23;2.80;;;23.30;99.90;;;;;;5051866;28;20431;-74
2023/12/16 09:54:15;;;;;;;9.13;2.57;;;23.30;99.90;;;;;;5053894;28;20416;-68
2023/12/16 09:56:44;;;;;;;8.48;3.42;;;23.20;99.90;;;;;;5055239;28;20465;-69
2023/12/16 09:59:12;;;;;;;10.93;3.22;;;23.20;99.90;;;;;;5056497;28;20024;-67
2023/12/16 10:01:39;;;;;;;9.02;3.45;;;23.20;99.90;;;;;;5050252;28;20119;-69
2023/12/16 10:04:08;;;;;;;8.40;3.42;;;23.20;99.90;;;;;;5052377;28;20108;-70
2023/12/16 10:06:35;;;;;;;9.85;3.40;;;23.20;99.90;;;;;;5052381;28;20225;-69
2023/12/16 10:09:02;;;;;;;9.13;3.63;;;23.10;99.90;;;;;;5051292;28;20039;-69
2023/12/16 10:11:30;;;;;;;11.07;2.88;;;23.00;99.90;;;;;;5049509;28;20318;-71
2023/12/16 10:14:00;;;;;;;8.93;3.72;;;23.00;99.90;;;;;;5049792;28;20302;-69
2023/12/16 10:16:27;;;;;;;9.00;3.35;;;23.00;99.90;;;;;;5051353;28;20028;-68
2023/12/16 10:18:56;;;;;;;11.43;2.83;;;23.00;99.90;;;;;;5055265;28;20024;-66
2023/12/16 10:21:33;;;;;;;8.38;3.25;;;23.00;99.90;;;;;;5054037;28;20581;-67
2023/12/16 10:24:02;;;;;;;10.20;3.33;;;23.00;99.90;;;;;;5053013;28;20210;-69
2023/12/16 10:26:34;;;;;;;7.90;3.45;;;23.00;99.90;;;;;;5050290;28;20070;-69
2023/12/16 10:29:05;;;;;;;12.13;3.17;;;23.00;99.90;;;;;;5050077;28;20217;-68
2023/12/16 10:31:36;;;;;;;6.60;3.13;;;22.90;99.90;;;;;;5051979;28;20059;-68
2023/12/16 10:34:03;;;;;;;11.20;3.45;;;22.80;99.90;;;;;;5048683;28;20049;-68
2023/12/16 10:36:31;;;;;;;8.30;3.42;;;22.80;99.90;;;;;;5051015;28;20661;-68
2023/12/16 10:39:01;;;;;;;9.20;3.03;;;22.80;99.90;;;;;;5051300;28;20275;-69
2023/12/16 10:41:29;;;;;;;10.93;3.15;;;22.80;99.90;;;;;;5053033;28;20115;-70
2023/12/16 10:43:56;;;;;;;10.43;3.47;;;22.70;99.90;;;;;;5050388;28;20029;-69
2023/12/16 10:46:35;;;;;;;9.00;2.80;;;22.70;99.90;;;;;;5053940;28;20401;-67
2023/12/16 10:49:03;;;;;;;10.18;3.10;;;22.70;99.90;;;;;;5057296;28;20498;-70
2023/12/16 10:51:32;;;;;;;10.93;3.17;;;22.70;99.90;;;;;;5054136;28;20029;-68
2023/12/16 10:54:09;;;;;;;11.10;3.10;;;22.70;99.90;;;;;;5053123;28;20467;-68
2023/12/16 10:56:42;;;;;;;14.35;3.45;;;22.70;99.90;;;;;;5051810;28;20032;-69
2023/12/16 10:59:23;;;;;;;7.03;2.90;;;22.70;99.90;;;;;;5051857;28;20070;-69
2023/12/16 11:01:57;;;;;;;11.20;2.95;;;22.80;99.90;;;;;;5053780;28;20028;-68
2023/12/16 11:04:35;;;;;;;10.52;3.22;;;22.70;99.90;;;;;;4702787;28;9999841;-68
2023/12/16 11:07:14;;;;;;;8.48;2.75;;;22.70;99.90;;;;;;5050672;28;20028;-68
2023/12/16 11:09:41;;;;;;;9.88;2.85;;;22.60;99.90;;;;;;5056058;28;20036;-69
2023/12/16 11:12:09;;;;;;;13.93;3.38;;;22.70;99.90;;;;;;5050590;28;20364;-67
2023/12/16 11:14:37;;;;;;;7.72;3.13;;;22.70;99.90;;;;;;5050054;28;20051;-68
2023/12/16 11:17:21;;;;;;;11.75;3.05;;;22.50;99.90;;;;;;5048494;28;20021;-69
2023/12/16 11:20:13;;;;;;;11.45;3.00;;;22.50;99.90;;;;;;5051282;28;20020;-72
2023/12/16 11:22:51;;;;;;;12.82;3.15;;;22.60;99.90;;;;;;5051801;28;20021;-69
2023/12/16 11:25:22;;;;;;;11.18;3.55;;;22.50;99.90;;;;;;5052100;28;20500;-67
2023/12/16 11:27:50;;;;;;;12.63;3.50;;;22.50;99.90;;;;;;5050442;28;20036;-69
2023/12/16 11:30:20;;;;;;;16.08;3.60;;;22.60;99.90;;;;;;5051515;28;20036;-68
2023/12/16 11:32:58;;;;;;;11.48;3.42;;;22.60;99.90;;;;;;5050327;28;20501;-70
2023/12/16 11:35:46;;;;;;;10.65;2.97;;;22.60;99.90;;;;;;5053625;28;20505;-66
2023/12/16 11:38:35;;;;;;;12.32;3.40;;;22.50;99.90;;;;;;5056294;28;20029;-68
2023/12/16 11:41:02;;;;;;;11.80;2.75;;;22.40;99.90;;;;;;5055355;28;20511;-66
2023/12/16 11:43:55;;;;;;;8.77;3.13;;;22.40;99.90;;;;;;5056716;28;20078;-67
2023/12/16 11:46:44;;;;;;;12.82;3.45;;;22.40;99.90;;;;;;5055723;28;20248;-69
2023/12/16 11:49:16;;;;;;;7.78;2.50;;;22.40;99.90;;;;;;5055704;28;20037;-71
2023/12/16 11:51:44;;;;;;;12.65;3.13;;;22.40;99.90;;;;;;5056616;28;20033;-68
2023/12/16 11:54:12;;;;;;;8.02;2.75;;;22.40;99.90;;;;;;5055837;28;20082;-72
2023/12/16 11:56:39;;;;;;;12.02;2.88;;;22.30;99.90;;;;;;5054683;28;20028;-69
2023/12/16 11:59:07;;;;;;;8.75;3.17;;;22.30;99.90;;;;;;5059425;28;20047;-69
2023/12/16 12:01:35;;;;;;;8.55;2.90;;;22.30;99.90;;;;;;5056075;28;20020;-69
2023/12/16 12:04:04;;;;;;;11.35;3.20;;;22.20;99.90;;;;;;5059380;28;20128;-70
2023/12/16 12:06:32;;;;;;;10.30;2.47;;;22.10;99.90;;;;;;5060754;28;20034;-69
2023/12/16 12:08:59;;;;;;;8.75;2.70;;;22.10;99.90;;;;;;5060796;28;20115;-68
2023/12/16 12:11:26;;;;;;;13.95;3.35;;;22.10;99.90;;;;;;5060424;28;20051;-69
2023/12/16 12:13:55;;;;;;;10.00;2.60;;;22.00;99.90;;;;;;5059196;28;20021;-69
2023/12/16 12:16:23;;;;;;;11.57;2.75;;;22.00;99.90;;;;;;5059220;28;20082;-71
2023/12/16 12:18:50;;;;;;;8.68;2.25;;;21.90;99.90;;;;;;5058204;28;20052;-68
2023/12/16 12:21:17;;;;;;;8.63;2.78;;;21.90;99.90;;;;;;5060264;28;20108;-68
2023/12/16 12:23:44;;;;;;;15.02;3.20;;;21.90;99.90;;;;;;5059887;28;20144;-68
2023/12/16 12:26:11;;;;;;;7.50;2.90;;;21.90;99.90;;;;;;5060439;28;20077;-66
2023/12/16 12:28:39;;;;;;;10.57;2.75;;;21.90;99.90;;;;;;5058829;28;20085;-71
2023/12/16 12:31:09;;;;;;;14.95;3.33;;;21.90;99.90;;;;;;5060600;28;20348;-67
2023/12/16 12:33:37;;;;;;;11.32;3.13;;;22.00;99.90;;;;;;5058213;28;20048;-67
2023/12/16 12:36:04;;;;;;;11.40;2.83;;;22.00;99.90;;;;;;5059165;28;20166;-69
2023/12/16 12:38:33;;;;;;;9.25;2.42;;;22.00;99.90;;;;;;5059828;28;20039;-66
2023/12/16 12:41:06;;;;;;;10.10;2.20;;;22.10;99.90;;;;;;5059513;28;20477;-69
2023/12/16 12:43:36;;;;;;;12.23;2.63;;;22.20;99.90;;;;;;5058174;28;20441;-66
2023/12/16 12:46:12;;;;;;;6.38;2.05;;;22.20;99.90;;;;;;5060927;28;20028;-67
2023/12/16 12:48:40;;;;;;;12.05;2.80;;;22.20;99.90;;;;;;5058905;28;20032;-69
2023/12/16 12:51:10;;;;;;;9.00;2.63;;;22.20;99.90;;;;;;5058950;28;20090;-70